createdAt,value
2017-10-15T00:36:41.517Z,92.88
2017-10-15T00:39:18.944Z,96.11
2017-10-15T00:41:54.023Z,92.73
2017-10-15T00:44:25.450Z,93.24
2017-10-15T00:46:56.744Z,91.91
2017-10-15T00:49:27.815Z,90.87
2017-10-15T00:51:58.999Z,90.64
2017-10-15T00:54:30.677Z,91.26
2017-10-15T00:57:02.936Z,92.33
2017-10-15T00:59:34.296Z,90.10
2017-10-15T01:02:05.909Z,89.44
2017-10-15T01:04:36.927Z,89.56
2017-10-15T01:07:08.053Z,90.28
2017-10-15T01:09:39.608Z,90.89
2017-10-15T01:12:11.983Z,91.48
2017-10-15T01:14:43.940Z,91.68
2017-10-15T01:17:14.998Z,92.18
2017-10-15T01:19:49.432Z,92.36
2017-10-15T01:22:20.683Z,91.89
2017-10-15T01:24:52.042Z,91.67
2017-10-15T01:27:23.087Z,90.99
2017-10-15T01:29:54.896Z,93.57
2017-10-15T01:32:26.766Z,90.61
2017-10-15T01:34:58.145Z,90.64
2017-10-15T01:37:29.098Z,94.82
2017-10-15T01:39:59.930Z,90.90
2017-10-15T01:42:31.153Z,98.35
2017-10-15T01:45:02.391Z,97.11
2017-10-15T01:47:34.020Z,100.00
2017-10-15T01:50:05.107Z,95.26
2017-10-15T01:52:36.221Z,97.30
2017-10-15T01:55:07.671Z,96.40
2017-10-15T01:57:38.725Z,93.45
2017-10-15T02:00:10.064Z,93.21
2017-10-15T02:02:48.672Z,91.73
2017-10-15T02:05:21.215Z,90.95
2017-10-15T02:07:52.598Z,91.35
2017-10-15T02:10:24.495Z,96.04
2017-10-15T02:12:55.804Z,91.78
2017-10-15T02:15:27.064Z,90.89
2017-10-15T02:17:58.607Z,90.65
2017-10-15T02:20:29.765Z,91.15
2017-10-15T02:23:00.751Z,90.83
2017-10-15T02:25:32.140Z,91.57
2017-10-15T02:28:03.302Z,91.25
2017-10-15T02:30:34.870Z,91.92
2017-10-15T02:33:05.951Z,92.05
2017-10-15T02:35:37.388Z,93.24
2017-10-15T02:38:09.414Z,92.77
2017-10-15T02:40:42.040Z,92.47
2017-10-15T02:43:13.583Z,92.30
2017-10-15T02:45:46.676Z,93.12
2017-10-15T02:48:17.901Z,92.74
2017-10-15T02:50:50.392Z,93.11
2017-10-15T02:53:22.130Z,92.51
2017-10-15T02:55:53.352Z,92.66
2017-10-15T02:58:24.596Z,92.95
2017-10-15T03:00:56.219Z,93.95
2017-10-15T03:03:26.790Z,94.71
2017-10-15T03:05:58.290Z,94.75
2017-10-15T03:08:29.805Z,94.85
2017-10-15T03:11:03.566Z,95.07
2017-10-15T03:13:37.348Z,94.96
2017-10-15T03:16:08.795Z,94.56
2017-10-15T03:18:40.399Z,94.30
2017-10-15T03:21:12.204Z,94.38
2017-10-15T03:23:44.493Z,94.23
2017-10-15T03:26:15.731Z,94.27
2017-10-15T03:28:50.718Z,93.87
2017-10-15T03:31:22.131Z,93.49
2017-10-15T03:33:53.689Z,92.67
2017-10-15T03:36:24.754Z,91.49
2017-10-15T03:38:55.759Z,91.60
2017-10-15T03:41:27.373Z,92.87
2017-10-15T03:43:58.490Z,94.01
2017-10-15T03:46:29.578Z,93.35
2017-10-15T03:49:00.765Z,96.39
2017-10-15T03:51:32.222Z,95.15
2017-10-15T03:54:03.084Z,97.75
2017-10-15T03:56:34.201Z,93.69
2017-10-15T03:59:06.286Z,92.63
2017-10-15T04:01:36.979Z,92.06
2017-10-15T04:04:08.738Z,93.32
2017-10-15T04:06:40.560Z,91.81
2017-10-15T04:09:11.818Z,91.20
2017-10-15T04:11:42.961Z,91.96
2017-10-15T04:14:14.372Z,92.96
2017-10-15T04:16:48.971Z,94.44
2017-10-15T04:19:20.431Z,94.75
2017-10-15T04:21:53.754Z,94.43
2017-10-15T04:24:25.195Z,96.18
2017-10-15T04:26:56.875Z,92.75
2017-10-15T04:29:27.982Z,92.33
2017-10-15T04:31:59.088Z,92.59
2017-10-15T04:34:30.426Z,92.46
2017-10-15T04:37:01.874Z,96.89
2017-10-15T04:39:33.115Z,92.79
2017-10-15T04:42:04.748Z,92.13
2017-10-15T04:44:36.562Z,92.17
2017-10-15T04:47:07.600Z,91.83
2017-10-15T04:49:38.873Z,97.72
2017-10-15T04:52:10.299Z,96.36
2017-10-15T04:54:41.585Z,92.23
2017-10-15T04:57:13.992Z,91.10
2017-10-15T04:59:48.769Z,91.16
2017-10-15T05:02:20.157Z,91.15
2017-10-15T05:04:52.935Z,97.44
2017-10-15T05:07:24.253Z,92.58
2017-10-15T05:09:56.167Z,91.95
2017-10-15T05:12:29.662Z,92.33
2017-10-15T05:15:03.233Z,92.21
2017-10-15T05:17:34.794Z,91.39
2017-10-15T05:20:06.788Z,91.42
2017-10-15T05:22:37.768Z,91.55
2017-10-15T05:25:09.026Z,91.57
2017-10-15T05:27:40.646Z,92.57
2017-10-15T05:30:12.374Z,91.98
2017-10-15T05:32:43.452Z,92.96
2017-10-15T05:35:15.292Z,92.43
2017-10-15T05:37:48.857Z,92.79
2017-10-15T05:40:21.411Z,93.17
2017-10-15T05:42:52.207Z,93.41
2017-10-15T05:45:23.664Z,93.44
2017-10-15T05:47:55.008Z,93.05
2017-10-15T05:50:25.770Z,93.37
2017-10-15T05:52:56.916Z,93.88
2017-10-15T05:55:29.785Z,93.42
2017-10-15T05:58:02.365Z,93.16
2017-10-15T06:00:32.956Z,92.96
2017-10-15T06:03:04.263Z,92.61
2017-10-15T06:05:36.718Z,92.95
2017-10-15T06:08:07.842Z,93.06
2017-10-15T06:10:39.678Z,94.03
2017-10-15T06:13:11.219Z,93.95
2017-10-15T06:15:42.466Z,94.11
2017-10-15T06:18:13.083Z,94.88
2017-10-15T06:20:44.175Z,95.41
2017-10-15T06:23:16.582Z,95.72
2017-10-15T06:25:50.600Z,95.75
2017-10-15T06:28:23.045Z,96.04
2017-10-15T06:30:54.474Z,96.25
2017-10-15T06:33:27.167Z,96.02
2017-10-15T06:35:58.060Z,96.42
2017-10-15T06:38:28.739Z,96.55
2017-10-15T06:40:59.384Z,96.42
2017-10-15T06:43:31.046Z,96.41
2017-10-15T06:49:01.856Z,96.53
2017-10-15T06:51:33.531Z,97.03
2017-10-15T06:54:08.193Z,97.63
2017-10-15T06:56:39.630Z,98.28
2017-10-15T06:59:10.891Z,98.76
2017-10-15T07:01:46.086Z,99.29
2017-10-15T07:04:18.017Z,99.78
2017-10-15T07:06:52.184Z,100.00
2017-10-15T07:09:24.106Z,100.00
2017-10-15T07:11:57.690Z,100.00
2017-10-15T07:14:29.545Z,100.00
2017-10-15T07:17:01.587Z,100.00
2017-10-15T07:19:34.856Z,98.17
2017-10-15T07:22:08.196Z,98.58
2017-10-15T07:24:42.007Z,97.64
2017-10-15T07:27:18.384Z,96.43
2017-10-15T07:29:53.815Z,98.66
2017-10-15T07:32:24.980Z,97.83
2017-10-15T07:34:58.640Z,98.16
2017-10-15T07:37:29.361Z,96.54
2017-10-15T07:40:00.786Z,97.88
2017-10-15T07:42:33.260Z,93.68
2017-10-15T07:45:13.878Z,93.70
2017-10-15T07:47:47.638Z,95.67
2017-10-15T07:50:20.230Z,96.45
2017-10-15T07:52:51.146Z,90.70
2017-10-15T07:55:22.479Z,92.77
2017-10-15T07:57:53.631Z,90.85
2017-10-15T08:00:26.266Z,94.91
2017-10-15T08:02:57.482Z,89.34
2017-10-15T08:05:28.690Z,90.20
2017-10-15T08:08:00.007Z,88.91
2017-10-15T08:10:31.247Z,88.08
2017-10-15T08:13:04.255Z,88.38
2017-10-15T08:15:35.203Z,88.69
2017-10-15T08:18:06.248Z,88.46
2017-10-15T08:20:38.575Z,90.32
2017-10-15T08:23:12.827Z,97.38
2017-10-15T08:25:45.631Z,85.83
2017-10-15T08:28:18.410Z,87.26
2017-10-15T08:30:50.395Z,85.97
2017-10-15T08:33:21.710Z,85.16
2017-10-15T08:35:52.410Z,80.99
2017-10-15T08:38:24.320Z,83.76
2017-10-15T08:40:55.011Z,84.35
2017-10-15T08:43:25.811Z,89.64
2017-10-15T08:45:57.842Z,79.92
2017-10-15T08:48:29.901Z,82.13
2017-10-15T08:51:01.660Z,80.73
2017-10-15T08:53:32.608Z,80.48
2017-10-15T08:56:04.877Z,81.00
2017-10-15T08:58:35.684Z,78.72
2017-10-15T09:01:07.785Z,79.35
2017-10-15T09:03:39.599Z,80.16
2017-10-15T09:06:14.089Z,82.58
2017-10-15T09:08:45.377Z,79.64
2017-10-15T09:11:16.960Z,76.69
2017-10-15T09:13:49.979Z,87.37
2017-10-15T09:16:22.080Z,81.79
2017-10-15T09:18:53.405Z,85.14
2017-10-15T09:21:25.773Z,79.77
2017-10-15T09:23:56.939Z,79.34
2017-10-15T09:26:29.007Z,75.82
2017-10-15T09:28:59.882Z,76.96
2017-10-15T09:31:30.559Z,75.09
2017-10-15T09:34:02.009Z,80.25
2017-10-15T09:36:42.458Z,72.52
2017-10-15T10:05:17.280Z,68.77
2017-10-15T10:12:33.828Z,68.86
2017-10-15T10:15:11.165Z,68.31
2017-10-15T10:17:42.472Z,65.01
2017-10-15T10:20:20.415Z,62.31
2017-10-15T11:07:19.193Z,56.30
2017-10-15T11:15:25.691Z,52.76
2017-10-15T11:18:08.641Z,50.69
2017-10-15T11:20:43.066Z,50.19
2017-10-15T11:23:19.783Z,50.28
2017-10-15T11:25:54.096Z,48.75
2017-10-15T11:28:30.694Z,49.45
2017-10-15T11:31:07.342Z,50.04
2017-10-15T11:33:43.954Z,50.42
2017-10-15T11:36:21.231Z,49.61
2017-10-15T11:39:05.725Z,49.39
2017-10-15T11:41:37.748Z,50.17
2017-10-15T11:44:08.638Z,49.57
2017-10-15T11:46:42.138Z,48.98
2017-10-15T11:49:16.936Z,48.55
2017-10-15T11:51:47.517Z,48.16
2017-10-15T11:54:18.907Z,47.19
2017-10-15T11:56:49.826Z,47.12
2017-10-15T11:59:20.848Z,46.61
2017-10-15T12:01:52.174Z,47.28
2017-10-15T12:04:25.103Z,46.23
2017-10-15T12:06:57.432Z,45.56
2017-10-15T12:09:29.574Z,47.02
2017-10-15T12:12:01.055Z,46.51
2017-10-15T12:14:32.909Z,45.91
2017-10-15T12:17:03.947Z,46.30
2017-10-15T12:19:41.705Z,45.52
2017-10-15T12:22:15.149Z,45.99
2017-10-15T12:24:46.990Z,46.27
2017-10-15T12:27:19.847Z,46.35
2017-10-15T12:29:52.503Z,47.35
2017-10-15T12:32:24.891Z,46.27
2017-10-15T12:34:57.759Z,44.75
2017-10-15T12:37:29.183Z,45.90
2017-10-15T12:40:00.696Z,44.38
2017-10-15T12:42:47.038Z,43.27
2017-10-15T12:45:32.534Z,42.70
2017-10-15T12:48:11.700Z,43.80
2017-10-15T12:50:44.006Z,46.76
2017-10-15T12:53:17.590Z,46.04
2017-10-15T12:55:51.334Z,47.54
2017-10-15T12:58:23.390Z,45.84
2017-10-15T13:00:57.060Z,48.24
2017-10-15T13:03:28.683Z,44.96
2017-10-15T13:06:00.249Z,45.30
2017-10-15T13:08:33.218Z,45.17
2017-10-15T13:11:05.028Z,45.06
2017-10-15T13:13:37.911Z,44.74
2017-10-15T13:16:14.182Z,46.18
2017-10-15T13:18:48.393Z,46.10
2017-10-15T13:21:20.789Z,45.63
2017-10-15T13:23:51.803Z,42.91
2017-10-15T13:26:23.409Z,44.51
2017-10-15T13:28:54.684Z,44.60
2017-10-15T13:31:25.702Z,44.15
2017-10-15T13:33:57.036Z,43.58
2017-10-15T13:36:29.338Z,42.58
2017-10-15T13:39:00.050Z,42.88
2017-10-15T13:41:30.858Z,42.10
2017-10-15T13:44:04.497Z,42.38
2017-10-15T13:46:36.561Z,43.36
2017-10-15T13:49:12.443Z,45.27
2017-10-15T13:51:45.036Z,46.14
2017-10-15T13:57:21.341Z,47.00
2017-10-15T13:59:53.738Z,45.60
2017-10-15T14:02:26.197Z,46.16
2017-10-15T14:04:57.163Z,46.20
2017-10-15T14:07:29.708Z,48.22
2017-10-15T14:10:00.563Z,48.66
2017-10-15T14:12:31.433Z,48.01
2017-10-15T14:15:02.882Z,47.78
2017-10-15T14:17:35.384Z,45.44
2017-10-15T14:20:07.816Z,45.38
2017-10-15T14:22:38.709Z,46.80
2017-10-15T14:25:12.704Z,47.03
2017-10-15T14:27:44.317Z,46.83
2017-10-15T14:30:19.004Z,48.30
2017-10-15T14:32:50.037Z,46.73
2017-10-15T14:35:20.571Z,46.65
2017-10-15T14:37:51.350Z,45.65
2017-10-15T14:40:22.636Z,46.00
2017-10-15T14:42:55.839Z,45.92
2017-10-15T14:45:28.354Z,46.01
2017-10-15T14:47:59.302Z,46.25
2017-10-15T14:50:31.676Z,46.17
2017-10-15T14:53:03.104Z,45.68
2017-10-15T14:55:35.539Z,46.16
2017-10-15T14:58:06.247Z,46.92
2017-10-15T15:00:37.634Z,47.70
2017-10-15T15:03:08.251Z,48.38
2017-10-15T15:05:40.847Z,48.79
2017-10-15T15:08:15.430Z,49.21
2017-10-15T15:10:46.534Z,49.91
2017-10-15T15:13:17.550Z,49.92
2017-10-15T15:15:57.571Z,50.43
2017-10-15T15:18:28.387Z,50.94
2017-10-15T15:21:00.318Z,50.86
2017-10-15T15:23:31.176Z,50.76
2017-10-15T15:26:02.223Z,50.31
2017-10-15T15:28:33.398Z,51.05
2017-10-15T15:31:04.231Z,51.03
2017-10-15T15:33:35.911Z,51.01
2017-10-15T15:36:06.887Z,51.86
2017-10-15T15:38:37.891Z,53.00
2017-10-15T15:41:08.961Z,53.95
2017-10-15T15:43:41.220Z,54.69
2017-10-15T15:46:12.336Z,55.10
2017-10-15T15:48:43.392Z,55.75
2017-10-15T15:51:14.179Z,56.85
2017-10-15T15:53:46.333Z,56.99
2017-10-15T15:56:17.635Z,56.80
2017-10-15T15:58:49.244Z,57.59
2017-10-15T16:01:20.631Z,58.25
2017-10-15T16:03:51.736Z,58.31
2017-10-15T16:06:22.874Z,58.22
2017-10-15T16:08:54.663Z,58.30
2017-10-15T16:11:26.166Z,58.44
2017-10-15T16:13:57.360Z,58.83
2017-10-15T16:16:30.429Z,59.74
2017-10-15T16:19:07.323Z,59.66
2017-10-15T16:21:39.556Z,60.14
2017-10-15T16:24:13.411Z,60.25
2017-10-15T16:26:46.007Z,60.68
2017-10-15T16:29:17.448Z,60.62
2017-10-15T16:31:48.860Z,60.98
2017-10-15T16:34:21.166Z,61.45
2017-10-15T16:36:52.966Z,61.45
2017-10-15T16:39:24.665Z,61.34
2017-10-15T16:41:56.524Z,61.73
2017-10-15T16:44:32.261Z,61.79
2017-10-15T16:47:03.185Z,61.82
2017-10-15T16:49:33.960Z,62.39
2017-10-15T16:52:04.634Z,62.97
2017-10-15T16:54:39.768Z,63.63
2017-10-15T16:57:12.532Z,63.46
2017-10-15T16:59:43.732Z,63.39
2017-10-15T17:02:17.651Z,63.27
2017-10-15T17:04:48.594Z,63.18
2017-10-15T17:07:19.856Z,63.50
2017-10-15T17:09:50.973Z,63.42
2017-10-15T17:12:22.590Z,63.91
2017-10-15T17:14:54.439Z,63.91
2017-10-15T17:17:26.208Z,63.93
2017-10-15T17:19:59.837Z,63.85
2017-10-15T17:22:32.895Z,63.78
2017-10-15T17:25:11.982Z,63.77
2017-10-15T17:27:44.054Z,63.92
2017-10-15T17:30:22.423Z,64.00
2017-10-15T17:33:01.726Z,64.17
2017-10-15T17:35:34.288Z,64.21
2017-10-15T17:38:05.458Z,65.07
2017-10-15T17:40:36.481Z,66.25
2017-10-15T17:43:07.125Z,67.26
2017-10-15T17:45:37.743Z,68.54
2017-10-15T17:48:14.504Z,68.16
2017-10-15T17:50:45.710Z,68.04
2017-10-15T17:53:22.391Z,68.50
2017-10-15T17:55:54.097Z,68.57
2017-10-15T17:58:26.359Z,68.95
2017-10-15T18:01:01.225Z,69.16
2017-10-15T18:03:32.115Z,69.19
2017-10-15T18:06:03.486Z,68.75
2017-10-15T18:08:55.436Z,68.50
2017-10-15T18:11:42.161Z,68.37
2017-10-15T18:14:19.718Z,69.16
2017-10-15T18:43:14.101Z,70.54
2017-10-15T19:08:05.339Z,73.83
2017-10-15T19:10:37.666Z,73.74
2017-10-15T19:13:11.625Z,75.86
2017-10-15T19:15:43.801Z,74.05
2017-10-15T19:18:20.253Z,74.08
2017-10-15T19:20:56.881Z,74.62
2017-10-15T19:23:47.379Z,75.91
2017-10-15T19:26:18.558Z,77.14
2017-10-15T19:28:49.396Z,76.14
2017-10-15T19:31:20.402Z,75.76
2017-10-15T19:33:51.230Z,75.77
2017-10-15T19:36:21.915Z,75.52
2017-10-15T19:38:57.754Z,75.57
2017-10-15T19:41:29.983Z,76.13
2017-10-15T19:44:02.692Z,76.04
2017-10-15T19:46:33.382Z,76.27
2017-10-15T19:49:05.114Z,78.65
2017-10-15T19:51:35.882Z,76.14
2017-10-15T19:54:06.852Z,76.19
2017-10-15T19:56:37.456Z,76.59
2017-10-15T19:59:17.210Z,77.07
2017-10-15T20:01:49.332Z,77.62
2017-10-15T20:04:23.083Z,77.40
2017-10-15T20:06:55.542Z,77.72
2017-10-15T20:09:30.226Z,77.24
2017-10-15T20:12:02.562Z,76.89
2017-10-15T20:14:33.390Z,76.83
2017-10-15T20:17:09.689Z,77.38
2017-10-15T20:19:45.172Z,77.45
2017-10-15T20:22:17.443Z,78.15
2017-10-15T20:24:50.282Z,77.98
2017-10-15T20:27:26.209Z,77.94
2017-10-15T20:29:57.422Z,77.71
2017-10-15T20:32:29.375Z,77.73
2017-10-15T20:35:01.145Z,77.79
2017-10-15T20:37:32.365Z,77.53
2017-10-15T20:40:04.364Z,77.84
2017-10-15T20:42:36.903Z,78.00
2017-10-15T20:45:12.785Z,78.54
2017-10-15T20:47:43.565Z,79.61
2017-10-15T20:50:18.571Z,79.95
2017-10-15T20:52:49.711Z,79.78
2017-10-15T20:55:22.064Z,80.02
2017-10-15T20:57:54.507Z,81.21
2017-10-15T21:00:26.403Z,80.32
2017-10-15T21:02:59.095Z,80.09
2017-10-15T21:05:30.592Z,80.54
2017-10-15T21:08:01.655Z,81.12
2017-10-15T21:10:32.904Z,81.80
2017-10-15T21:13:04.086Z,81.59
2017-10-15T21:15:35.646Z,81.13
2017-10-15T21:18:07.276Z,81.14
2017-10-15T21:20:39.048Z,81.21
2017-10-15T21:23:20.697Z,81.05
2017-10-15T21:25:57.285Z,81.34
2017-10-15T21:28:28.484Z,81.41
2017-10-15T21:31:00.119Z,81.44
2017-10-15T21:33:31.009Z,81.52
2017-10-15T21:36:03.150Z,81.64
2017-10-15T21:38:36.218Z,81.64
2017-10-15T21:41:07.002Z,81.53
2017-10-15T21:43:38.279Z,81.79
2017-10-15T21:46:08.970Z,81.75
2017-10-15T21:48:40.018Z,81.88
2017-10-15T21:51:15.080Z,82.05
2017-10-15T21:56:53.568Z,82.22
2017-10-15T21:59:24.151Z,82.58
2017-10-15T22:01:57.767Z,82.69
2017-10-15T22:04:41.323Z,82.81
2017-10-15T22:07:12.134Z,82.93
2017-10-15T22:09:43.761Z,83.07
2017-10-15T22:12:16.298Z,83.10
2017-10-15T22:14:47.759Z,83.22
2017-10-15T22:17:19.640Z,83.21
2017-10-15T22:19:50.299Z,83.25
2017-10-15T22:22:26.677Z,83.25
2017-10-15T22:24:57.631Z,83.49
2017-10-15T22:27:28.133Z,83.25
2017-10-15T22:29:58.787Z,83.53
2017-10-15T22:32:30.179Z,83.42
2017-10-15T22:35:01.822Z,83.49
2017-10-15T22:37:33.156Z,83.88
2017-10-15T22:40:04.521Z,83.82
2017-10-15T22:42:36.830Z,83.86
2017-10-15T22:45:07.571Z,83.92
2017-10-15T22:47:38.013Z,83.77
2017-10-15T22:50:12.414Z,83.50
2017-10-15T22:52:43.284Z,82.84
2017-10-15T22:55:16.036Z,82.88
2017-10-15T22:57:47.011Z,83.33
2017-10-15T23:00:18.166Z,83.17
2017-10-15T23:02:49.719Z,83.21
2017-10-15T23:05:21.480Z,83.09
2017-10-15T23:07:53.356Z,83.09
2017-10-15T23:10:28.288Z,83.17
2017-10-15T23:12:59.998Z,83.50
2017-10-15T23:15:31.639Z,84.05
2017-10-15T23:18:02.940Z,84.79
2017-10-15T23:20:35.627Z,84.67
2017-10-15T23:23:06.457Z,84.47
2017-10-15T23:25:39.328Z,84.64
2017-10-15T23:28:13.179Z,84.58
2017-10-15T23:30:45.774Z,84.56
2017-10-15T23:33:17.458Z,85.00
2017-10-15T23:35:48.543Z,85.23
2017-10-15T23:38:20.871Z,85.43
2017-10-15T23:40:51.968Z,85.37
2017-10-15T23:43:23.212Z,85.67
2017-10-15T23:45:57.181Z,85.55
2017-10-15T23:48:29.221Z,85.11
2017-10-15T23:51:01.229Z,85.14
2017-10-15T23:53:33.095Z,85.15
2017-10-15T23:56:04.217Z,85.66
2017-10-15T23:58:35.990Z,85.34
